Weather at Xàbia Heliport

Public forecast

Using degrees Celsius for public forecast. Weather courtesy of forecast.io.

Closest aviation weather report (METAR) to Xàbia Heliport

Closest report is Alicante-Elche Miguel Hernández Airport, 45.4 nm (84.1 km) SW.

2024/04/12 17:00 (retrieved 24 minutes ago)

LEAL 121700Z 10004KT 060V150 CAVOK 19/07 Q1029 NOSIG

Closest aviation forecast (TAF) to Xàbia Heliport

Closest forecast is Alicante-Elche Miguel Hernández Airport, 45.4 nm (84.1 km) SW.

2024/04/12 12:27 (retrieved 5 hours ago)

TAF TAF LEAL 121100Z 1212/1312 10010KT 9999 FEW020 TX23/1215Z TN11/1306Z BECMG 1218/1220 30004KT BECMG 1310/1312 11010KT